Weather at Charleston Air Force Base-International Airport

Public forecast

Using degrees Fahrenheit for public forecast. Weather courtesy of forecast.io.

Current aviation weather report (METAR) for Charleston Air Force Base-International Airport

Retrieved 2020/10/01 20:56 UTC (46 minutes ago):

KCHS 012056Z 21006KT 10SM CLR 26/14 A2994 RMK AO2 SLP137 T02610139 56019

Aviation forecast (TAF) for Charleston Air Force Base-International Airport

Retrieved 2020/10/01 18:24 UTC (3 hours ago):

TAF KCHS 011720Z 0118/0218 21007KT P6SM SKC FM020900 30007KT P6SM FEW250 FM021300 01010G15KT P6SM FEW250